createdAt,value
2023-07-24T00:00:42.383Z,7.88
2023-07-24T00:03:10.489Z,7.30
2023-07-24T00:05:39.740Z,7.15
2023-07-24T00:08:09.023Z,7.00
2023-07-24T00:10:36.961Z,7.00
2023-07-24T00:13:05.210Z,7.03
2023-07-24T00:15:33.246Z,7.50
2023-07-24T00:18:01.265Z,7.55
2023-07-24T00:20:30.682Z,7.20
2023-07-24T00:22:58.667Z,6.95
2023-07-24T00:25:27.957Z,7.20
2023-07-24T00:27:56.456Z,7.55
2023-07-24T00:30:24.642Z,6.93
2023-07-24T00:32:52.639Z,6.95
2023-07-24T00:35:20.924Z,6.70
2023-07-24T00:37:48.890Z,7.32
2023-07-24T00:40:16.845Z,6.75
2023-07-24T00:42:50.161Z,6.72
2023-07-24T00:47:46.670Z,6.68
2023-07-24T00:50:15.470Z,7.07
2023-07-24T00:52:44.232Z,6.57
2023-07-24T00:55:17.485Z,6.88
2023-07-24T00:57:46.744Z,7.60
2023-07-24T01:00:16.645Z,6.55
2023-07-24T01:02:45.844Z,6.95
2023-07-24T01:05:16.518Z,6.65
2023-07-24T01:07:44.790Z,7.22
2023-07-24T01:10:12.784Z,6.40
2023-07-24T01:12:46.720Z,6.68
2023-07-24T01:15:22.705Z,6.50
2023-07-24T01:17:59.025Z,6.22
2023-07-24T01:20:30.506Z,7.30
2023-07-24T01:23:19.555Z,6.35
2023-07-24T01:25:59.647Z,6.57
2023-07-24T01:28:28.391Z,6.43
2023-07-24T01:30:57.654Z,6.28
2023-07-24T01:33:26.574Z,6.93
2023-07-24T01:35:57.756Z,6.40
2023-07-24T01:38:27.462Z,6.90
2023-07-24T01:40:56.188Z,6.18
2023-07-24T01:43:28.119Z,6.93
2023-07-24T01:45:56.380Z,6.28
2023-07-24T01:48:24.463Z,7.28
2023-07-24T01:50:52.529Z,8.05
2023-07-24T01:53:20.465Z,6.68
2023-07-24T01:55:48.501Z,6.47
2023-07-24T01:58:16.702Z,6.68
2023-07-24T02:00:46.111Z,6.80
2023-07-24T02:03:14.105Z,6.97
2023-07-24T02:05:42.184Z,6.72
2023-07-24T02:08:10.142Z,6.30
2023-07-24T02:10:39.892Z,6.47
2023-07-24T02:13:08.617Z,6.95
2023-07-24T02:15:36.740Z,6.70
2023-07-24T02:18:06.468Z,6.43
2023-07-24T02:20:34.414Z,6.97
2023-07-24T02:23:02.418Z,6.60
2023-07-24T02:25:30.399Z,6.50
2023-07-24T02:27:58.379Z,6.93
2023-07-24T02:30:26.297Z,7.38
2023-07-24T02:32:54.238Z,6.60
2023-07-24T02:35:23.581Z,6.97
2023-07-24T02:37:51.564Z,7.35
2023-07-24T02:40:19.671Z,7.47
2023-07-24T02:42:48.841Z,6.85
2023-07-24T02:45:16.906Z,7.63
2023-07-24T02:47:44.832Z,7.28
2023-07-24T02:50:12.752Z,6.88
2023-07-24T02:52:42.028Z,7.20
2023-07-24T02:55:10.442Z,7.22
2023-07-24T02:57:38.512Z,7.15
2023-07-24T03:00:08.213Z,7.50
2023-07-24T03:02:36.225Z,7.53
2023-07-24T03:05:04.980Z,7.13
2023-07-24T03:07:34.025Z,6.50
2023-07-24T03:10:04.184Z,7.55
2023-07-24T03:12:32.324Z,7.55
2023-07-24T03:15:00.280Z,9.15
2023-07-24T03:17:28.345Z,9.02
2023-07-24T03:19:57.191Z,8.90
2023-07-24T03:22:25.240Z,8.77
2023-07-24T03:24:53.302Z,9.48
2023-07-24T03:27:22.608Z,9.93
2023-07-24T03:29:50.604Z,9.27
2023-07-24T03:32:18.535Z,9.27
2023-07-24T03:34:46.503Z,8.70
2023-07-24T03:37:14.458Z,9.10
2023-07-24T03:39:42.430Z,9.32
2023-07-24T03:42:13.602Z,8.70
2023-07-24T03:44:44.853Z,9.27
2023-07-24T03:47:12.798Z,9.50
2023-07-24T03:49:40.750Z,8.93
2023-07-24T03:52:08.725Z,8.60
2023-07-24T03:54:36.644Z,9.32
2023-07-24T03:57:05.106Z,9.15
2023-07-24T03:59:34.160Z,10.23
2023-07-24T04:02:03.687Z,9.35
2023-07-24T04:04:31.665Z,9.30
2023-07-24T04:06:59.642Z,9.57
2023-07-24T04:09:27.588Z,9.50
2023-07-24T04:11:55.591Z,9.20
2023-07-24T04:14:23.518Z,9.85
2023-07-24T04:16:51.546Z,9.90
2023-07-24T04:19:20.915Z,9.52
2023-07-24T04:21:48.940Z,9.23
2023-07-24T04:24:16.930Z,9.48
2023-07-24T04:26:44.937Z,9.52
2023-07-24T04:29:12.863Z,10.27
2023-07-24T04:31:40.799Z,10.20
2023-07-24T04:34:08.787Z,10.05
2023-07-24T04:36:38.075Z,9.25
2023-07-24T04:39:06.070Z,10.02
2023-07-24T04:41:34.055Z,10.18
2023-07-24T04:44:01.996Z,9.52
2023-07-24T04:46:30.145Z,9.98
2023-07-24T04:48:58.533Z,9.43
2023-07-24T04:51:26.596Z,9.32
2023-07-24T04:53:55.961Z,9.40
2023-07-24T04:56:25.012Z,9.48
2023-07-24T04:58:52.987Z,9.48
2023-07-24T05:01:21.024Z,9.65
2023-07-24T05:03:48.964Z,9.63
2023-07-24T05:06:16.928Z,9.95
2023-07-24T05:08:44.953Z,9.85
2023-07-24T05:11:14.272Z,9.68
2023-07-24T05:13:42.239Z,8.90
2023-07-24T05:16:10.267Z,9.07
2023-07-24T05:18:40.691Z,9.48
2023-07-24T05:21:08.908Z,8.55
2023-07-24T05:23:36.878Z,9.07
2023-07-24T05:26:05.793Z,8.73
2023-07-24T05:28:35.198Z,8.68
2023-07-24T05:31:04.140Z,9.18
2023-07-24T05:33:32.118Z,9.40
2023-07-24T05:36:00.893Z,8.90
2023-07-24T05:38:29.384Z,8.80
2023-07-24T05:40:57.936Z,8.65
2023-07-24T05:43:26.233Z,9.25
2023-07-24T05:45:56.925Z,9.13
2023-07-24T05:48:25.901Z,9.75
2023-07-24T05:50:54.059Z,9.63
2023-07-24T05:53:22.078Z,9.48
2023-07-24T05:55:59.003Z,8.82
2023-07-24T05:58:27.026Z,9.80
2023-07-24T06:00:57.102Z,10.35
2023-07-24T06:03:25.896Z,9.43
2023-07-24T06:05:54.893Z,8.93
2023-07-24T06:08:24.039Z,9.45
2023-07-24T06:10:52.976Z,9.68
2023-07-24T06:13:21.402Z,9.65
2023-07-24T06:15:50.186Z,9.43
2023-07-24T06:18:19.645Z,8.88
2023-07-24T06:20:47.701Z,9.30
2023-07-24T06:23:15.687Z,9.40
2023-07-24T06:25:44.352Z,10.00
2023-07-24T06:28:12.309Z,8.98
2023-07-24T06:30:40.976Z,9.07
2023-07-24T06:33:08.998Z,9.32
2023-07-24T06:35:38.377Z,9.43
2023-07-24T06:38:06.347Z,9.38
2023-07-24T06:40:34.736Z,9.68
2023-07-24T06:43:02.809Z,9.52
2023-07-24T06:45:30.786Z,9.38
2023-07-24T06:47:58.882Z,10.35
2023-07-24T06:50:26.927Z,9.73
2023-07-24T06:52:57.353Z,10.30
2023-07-24T06:55:25.400Z,8.98
2023-07-24T06:57:53.336Z,10.10
2023-07-24T07:00:21.482Z,9.90
2023-07-24T07:02:49.517Z,10.20
2023-07-24T07:05:18.806Z,9.90
2023-07-24T07:07:46.787Z,9.05
2023-07-24T07:10:16.162Z,9.88
2023-07-24T07:12:44.117Z,9.85
2023-07-24T07:15:12.313Z,10.07
2023-07-24T07:17:40.286Z,10.23
2023-07-24T07:20:09.323Z,9.45
2023-07-24T07:22:37.357Z,9.90
2023-07-24T07:25:06.127Z,9.55
2023-07-24T07:27:35.526Z,9.50
2023-07-24T07:30:03.555Z,9.35
2023-07-24T07:32:31.588Z,9.93
2023-07-24T07:34:59.554Z,8.45
2023-07-24T07:37:27.541Z,9.65
2023-07-24T07:39:55.813Z,10.43
2023-07-24T07:42:23.906Z,8.70
2023-07-24T07:44:53.324Z,9.68
2023-07-24T07:47:21.331Z,9.52
2023-07-24T07:49:49.455Z,9.23
2023-07-24T07:52:18.533Z,9.63
2023-07-24T07:54:48.807Z,8.27
2023-07-24T07:57:17.434Z,8.45
2023-07-24T07:59:45.377Z,9.25
2023-07-24T08:02:15.345Z,9.63
2023-07-24T08:04:43.304Z,9.77
2023-07-24T08:07:11.404Z,9.52
2023-07-24T08:09:39.994Z,9.13
2023-07-24T08:12:11.411Z,9.43
2023-07-24T08:14:39.625Z,9.15
2023-07-24T08:17:07.774Z,9.10
2023-07-24T08:19:37.180Z,9.27
2023-07-24T08:22:06.514Z,9.27
2023-07-24T08:24:36.303Z,8.32
2023-07-24T08:27:04.525Z,8.07
2023-07-24T08:29:32.618Z,8.10
2023-07-24T08:32:00.735Z,7.88
2023-07-24T08:34:28.866Z,7.78
2023-07-24T08:36:58.176Z,8.25
2023-07-24T08:39:26.109Z,8.30
2023-07-24T08:41:54.087Z,7.18
2023-07-24T08:44:25.358Z,7.47
2023-07-24T08:46:53.851Z,7.30
2023-07-24T08:49:22.111Z,7.57
2023-07-24T08:51:50.626Z,7.40
2023-07-24T08:54:22.275Z,6.45
2023-07-24T08:56:51.379Z,7.85
2023-07-24T08:59:19.490Z,7.75
2023-07-24T09:01:47.653Z,7.75
2023-07-24T09:04:15.836Z,7.38
2023-07-24T09:06:44.342Z,7.75
2023-07-24T09:09:16.278Z,8.25
2023-07-24T09:11:54.685Z,7.93
2023-07-24T09:14:23.993Z,7.13
2023-07-24T09:16:53.999Z,8.00
2023-07-24T09:21:53.048Z,7.55
2023-07-24T09:24:22.686Z,7.20
2023-07-24T09:26:58.578Z,6.68
2023-07-24T09:29:33.138Z,6.80
2023-07-24T09:32:01.579Z,6.63
2023-07-24T09:34:29.821Z,6.30
2023-07-24T09:36:58.067Z,5.95
2023-07-24T09:39:26.624Z,6.15
2023-07-24T09:42:04.179Z,5.80
2023-07-24T09:44:33.036Z,5.55
2023-07-24T09:47:24.526Z,5.32
2023-07-24T09:49:50.278Z,5.57
2023-07-24T09:52:21.386Z,5.97
2023-07-24T09:54:57.497Z,5.35
2023-07-24T09:57:29.013Z,5.07
2023-07-24T09:59:59.128Z,5.00
2023-07-24T10:02:27.735Z,4.88
2023-07-24T10:04:57.172Z,4.95
2023-07-24T10:07:25.761Z,5.10
2023-07-24T10:09:54.330Z,4.93
2023-07-24T10:12:22.975Z,5.28
2023-07-24T10:14:52.702Z,4.47
2023-07-24T10:17:36.797Z,4.95
2023-07-24T10:20:06.784Z,4.53
2023-07-24T10:22:35.120Z,4.93
2023-07-24T10:25:03.318Z,4.55
2023-07-24T10:27:31.405Z,4.50
2023-07-24T10:30:14.609Z,4.80
2023-07-24T10:32:55.539Z,5.13
2023-07-24T10:35:25.676Z,4.68
2023-07-24T10:38:01.842Z,5.20
2023-07-24T10:40:29.981Z,4.72
2023-07-24T10:43:02.007Z,4.50
2023-07-24T10:45:42.348Z,4.90
2023-07-24T10:48:12.762Z,4.90
2023-07-24T10:50:44.107Z,5.00
2023-07-24T10:53:12.613Z,4.95
2023-07-24T10:55:40.982Z,5.22
2023-07-24T10:58:09.792Z,4.75
2023-07-24T11:00:37.807Z,4.70
2023-07-24T11:03:09.401Z,5.13
2023-07-24T11:05:37.505Z,4.72
2023-07-24T11:08:15.035Z,5.05
2023-07-24T11:10:48.379Z,4.78
2023-07-24T11:13:16.776Z,5.10
2023-07-24T11:15:45.611Z,5.22
2023-07-24T11:18:15.029Z,5.10
2023-07-24T11:20:47.162Z,5.20
2023-07-24T11:23:16.049Z,5.15
2023-07-24T11:25:44.227Z,5.03
2023-07-24T11:28:13.660Z,5.20
2023-07-24T11:30:41.995Z,5.20
2023-07-24T11:33:13.121Z,5.40
2023-07-24T11:35:43.847Z,5.35
2023-07-24T11:38:12.589Z,5.18
2023-07-24T11:40:42.244Z,5.25
2023-07-24T11:43:17.810Z,5.82
2023-07-24T11:45:47.949Z,5.63
2023-07-24T11:48:16.286Z,5.40
2023-07-24T11:50:46.719Z,5.35
2023-07-24T11:53:25.708Z,5.30
2023-07-24T11:55:54.857Z,5.88
2023-07-24T11:58:23.289Z,5.70
2023-07-24T12:00:52.849Z,5.28
2023-07-24T12:03:22.707Z,5.47
2023-07-24T12:05:52.340Z,6.40
2023-07-24T12:08:24.613Z,6.10
2023-07-24T12:10:52.875Z,5.63
2023-07-24T12:13:22.082Z,6.78
2023-07-24T12:15:50.367Z,6.30
2023-07-24T12:18:18.507Z,6.55
2023-07-24T12:20:46.479Z,6.15
2023-07-24T12:23:15.870Z,6.20
2023-07-24T12:25:43.883Z,5.32
2023-07-24T12:28:11.833Z,5.18
2023-07-24T12:30:39.909Z,5.30
2023-07-24T12:33:07.900Z,4.97
2023-07-24T12:35:36.144Z,6.10
2023-07-24T12:38:04.142Z,5.80
2023-07-24T12:40:33.454Z,5.07
2023-07-24T12:43:01.368Z,5.15
2023-07-24T12:45:29.720Z,5.10
2023-07-24T12:47:57.962Z,5.45
2023-07-24T12:50:25.969Z,5.50
2023-07-24T12:52:54.066Z,4.85
2023-07-24T12:55:22.336Z,5.07
2023-07-24T12:57:51.582Z,5.05
2023-07-24T13:00:19.822Z,6.38
2023-07-24T13:02:47.774Z,5.55
2023-07-24T13:05:15.992Z,5.78
2023-07-24T13:07:43.975Z,5.53
2023-07-24T13:10:12.064Z,6.13
2023-07-24T13:12:40.078Z,5.15
2023-07-24T13:15:10.174Z,5.95
2023-07-24T13:17:38.476Z,6.00
2023-07-24T13:20:08.172Z,5.53
2023-07-24T13:22:36.136Z,5.10
2023-07-24T13:25:04.191Z,4.97
2023-07-24T13:27:32.132Z,5.28
2023-07-24T13:30:00.855Z,5.47
2023-07-24T13:32:31.114Z,5.70
2023-07-24T13:35:00.024Z,5.78
2023-07-24T13:37:28.021Z,5.70
2023-07-24T13:39:55.972Z,5.22
2023-07-24T13:42:23.927Z,4.70
2023-07-24T13:44:51.937Z,5.57
2023-07-24T13:47:19.860Z,5.63
2023-07-24T13:49:49.156Z,5.25
2023-07-24T13:52:17.189Z,5.47
2023-07-24T13:54:45.201Z,5.15
2023-07-24T13:57:15.559Z,5.50
2023-07-24T13:59:43.588Z,5.50
2023-07-24T14:02:11.518Z,5.45
2023-07-24T14:04:39.683Z,5.03
2023-07-24T14:07:11.095Z,4.75
2023-07-24T14:09:40.318Z,4.63
2023-07-24T14:12:10.169Z,4.47
2023-07-24T14:14:38.178Z,3.88
2023-07-24T14:17:06.695Z,3.88
2023-07-24T14:19:34.640Z,3.83
2023-07-24T14:22:02.870Z,4.38
2023-07-24T14:24:32.217Z,4.10
2023-07-24T14:27:00.137Z,4.80
2023-07-24T14:29:28.123Z,4.20
2023-07-24T14:31:56.120Z,3.00
2023-07-24T14:34:24.232Z,3.47
2023-07-24T14:36:53.721Z,4.03
2023-07-24T14:39:22.182Z,3.97
2023-07-24T14:41:51.423Z,3.83
2023-07-24T14:44:19.584Z,3.97
2023-07-24T14:46:47.535Z,4.40
2023-07-24T14:49:15.542Z,4.20
2023-07-24T14:51:43.544Z,4.57
2023-07-24T14:54:11.518Z,4.10
2023-07-24T14:56:52.273Z,3.85
2023-07-24T14:59:24.708Z,4.05
2023-07-24T15:01:52.723Z,3.28
2023-07-24T15:04:20.764Z,3.10
2023-07-24T15:06:48.739Z,3.40
2023-07-24T15:09:16.757Z,3.35
2023-07-24T15:11:44.754Z,3.63
2023-07-24T15:14:12.863Z,2.75
2023-07-24T15:16:42.176Z,2.78
2023-07-24T15:19:10.204Z,2.92
2023-07-24T15:21:38.201Z,2.78
2023-07-24T15:24:06.628Z,2.55
2023-07-24T15:26:34.596Z,2.35
2023-07-24T15:29:02.555Z,2.70
2023-07-24T15:31:36.444Z,2.20
2023-07-24T15:34:06.393Z,2.53
2023-07-24T15:36:34.501Z,2.83
2023-07-24T15:39:02.440Z,3.13
2023-07-24T15:41:31.403Z,2.97
2023-07-24T15:43:59.674Z,3.28
2023-07-24T15:46:29.674Z,3.28
2023-07-24T15:48:58.648Z,3.05
2023-07-24T15:51:29.054Z,3.03
2023-07-24T15:53:57.754Z,3.20
2023-07-24T15:56:26.334Z,2.97
2023-07-24T15:58:55.969Z,3.15
2023-07-24T16:01:24.264Z,2.92
2023-07-24T16:03:52.303Z,3.10
2023-07-24T16:06:20.234Z,3.10
2023-07-24T16:08:49.535Z,2.97
2023-07-24T16:11:17.535Z,2.75
2023-07-24T16:13:45.507Z,2.92
2023-07-24T16:16:15.161Z,3.42
2023-07-24T16:18:43.718Z,2.67
2023-07-24T16:21:11.633Z,2.63
2023-07-24T16:23:39.601Z,2.20
2023-07-24T16:26:08.913Z,2.90
2023-07-24T16:28:37.265Z,2.42
2023-07-24T16:31:06.788Z,2.83
2023-07-24T16:33:34.828Z,2.58
2023-07-24T16:36:02.751Z,2.78
2023-07-24T16:38:30.697Z,2.63
2023-07-24T16:40:58.674Z,3.13
2023-07-24T16:43:27.929Z,2.92
2023-07-24T16:48:26.717Z,2.83
2023-07-24T16:50:54.764Z,2.63
2023-07-24T16:53:22.736Z,3.10
2023-07-24T16:55:50.675Z,3.10
2023-07-24T16:58:18.734Z,3.40
2023-07-24T17:00:48.041Z,3.17
2023-07-24T17:03:16.188Z,3.67
2023-07-24T17:05:44.330Z,3.85
2023-07-24T17:08:12.303Z,3.70
2023-07-24T17:10:44.842Z,3.53
2023-07-24T17:13:13.065Z,4.00
2023-07-24T17:15:41.077Z,4.03
2023-07-24T17:18:10.706Z,3.40
2023-07-24T17:20:40.155Z,3.33
2023-07-24T17:23:10.550Z,3.70
2023-07-24T17:25:40.761Z,4.22
2023-07-24T17:28:08.886Z,3.90
2023-07-24T17:30:37.817Z,4.15
2023-07-24T17:33:05.980Z,4.20
2023-07-24T17:35:35.376Z,3.47
2023-07-24T17:38:03.633Z,4.28
2023-07-24T17:40:31.683Z,3.33
2023-07-24T17:42:59.755Z,3.85
2023-07-24T17:45:27.814Z,4.00
2023-07-24T17:47:55.989Z,3.88
2023-07-24T17:50:24.343Z,3.92
2023-07-24T17:52:53.886Z,4.22
2023-07-24T17:55:22.088Z,4.47
2023-07-24T17:57:51.503Z,4.38
2023-07-24T18:00:22.870Z,4.55
2023-07-24T18:02:51.071Z,4.85
2023-07-24T18:05:19.169Z,4.90
2023-07-24T18:07:48.440Z,5.55
2023-07-24T18:10:21.134Z,4.65
2023-07-24T18:12:54.112Z,5.28
2023-07-24T18:15:22.095Z,5.23
2023-07-24T18:17:50.105Z,6.13
2023-07-24T18:20:18.182Z,5.50
2023-07-24T18:22:50.190Z,5.75
2023-07-24T18:25:19.552Z,6.43
2023-07-24T18:27:47.553Z,6.45
2023-07-24T18:30:15.731Z,6.20
2023-07-24T18:32:44.256Z,6.25
2023-07-24T18:35:14.021Z,5.65
2023-07-24T18:37:42.005Z,5.70
2023-07-24T18:40:12.095Z,5.88
2023-07-24T18:42:42.973Z,5.55
2023-07-24T18:45:11.634Z,5.80
2023-07-24T18:47:40.306Z,5.97
2023-07-24T18:50:09.151Z,5.65
2023-07-24T18:52:37.150Z,5.63
2023-07-24T18:55:09.035Z,5.15
2023-07-24T18:57:37.127Z,5.60
2023-07-24T19:00:07.951Z,5.68
2023-07-24T19:02:36.138Z,5.53
2023-07-24T19:05:06.285Z,6.15
2023-07-24T19:07:34.304Z,6.00
2023-07-24T19:10:04.321Z,5.95
2023-07-24T19:12:32.371Z,5.45
2023-07-24T19:15:01.981Z,5.57
2023-07-24T19:17:31.527Z,6.18
2023-07-24T19:19:59.556Z,5.63
2023-07-24T19:22:27.537Z,6.22
2023-07-24T19:24:55.887Z,6.05
2023-07-24T19:27:24.465Z,6.38
2023-07-24T19:29:52.873Z,5.88
2023-07-24T19:32:21.447Z,6.60
2023-07-24T19:34:50.834Z,6.00
2023-07-24T19:37:18.898Z,5.80
2023-07-24T19:39:46.917Z,5.85
2023-07-24T19:42:15.204Z,5.90
2023-07-24T19:44:43.210Z,5.63
2023-07-24T19:47:11.217Z,5.80
2023-07-24T19:49:41.136Z,6.10
2023-07-24T19:52:10.690Z,5.75
2023-07-24T19:54:40.871Z,5.80
2023-07-24T19:57:08.919Z,6.10
2023-07-24T19:59:37.498Z,6.55
2023-07-24T20:02:07.994Z,6.65
2023-07-24T20:04:39.485Z,6.13
2023-07-24T20:07:08.051Z,6.43
2023-07-24T20:09:38.152Z,5.72
2023-07-24T20:12:10.609Z,6.53
2023-07-24T20:14:38.591Z,6.10
2023-07-24T20:17:07.198Z,6.00
2023-07-24T20:19:37.688Z,5.47
2023-07-24T20:22:05.954Z,5.90
2023-07-24T20:24:34.283Z,5.30
2023-07-24T20:27:03.756Z,5.68
2023-07-24T20:29:31.781Z,5.20
2023-07-24T20:31:59.741Z,5.30
2023-07-24T20:34:27.808Z,5.80
2023-07-24T20:36:55.848Z,5.18
2023-07-24T20:39:23.937Z,4.30
2023-07-24T20:41:51.974Z,4.53
2023-07-24T20:44:21.323Z,4.57
2023-07-24T20:46:49.451Z,4.18
2023-07-24T20:49:17.594Z,5.03
2023-07-24T20:51:45.629Z,4.55
2023-07-24T20:54:13.700Z,4.75
2023-07-24T20:56:41.830Z,4.50
2023-07-24T20:59:09.878Z,5.05
2023-07-24T21:01:39.340Z,4.85
2023-07-24T21:04:07.676Z,5.10
2023-07-24T21:06:36.199Z,5.30
2023-07-24T21:09:04.412Z,5.70
2023-07-24T21:11:32.626Z,5.57
2023-07-24T21:14:00.920Z,5.45
2023-07-24T21:16:29.010Z,5.45
2023-07-24T21:18:58.471Z,5.40
2023-07-24T21:21:26.862Z,5.13
2023-07-24T21:23:54.871Z,4.50
2023-07-24T21:26:24.470Z,5.40
2023-07-24T21:28:53.555Z,4.65
2023-07-24T21:31:21.500Z,5.18
2023-07-24T21:33:49.653Z,5.60
2023-07-24T21:36:19.039Z,5.22
2023-07-24T21:38:47.112Z,4.90
2023-07-24T21:41:15.115Z,4.93
2023-07-24T21:43:43.095Z,4.80
2023-07-24T21:46:11.187Z,4.75
2023-07-24T21:48:40.457Z,4.95
2023-07-24T21:51:08.799Z,4.85
2023-07-24T21:53:38.159Z,5.03
2023-07-24T21:56:06.390Z,4.55
2023-07-24T21:58:34.358Z,4.72
2023-07-24T22:01:02.372Z,4.40
2023-07-24T22:03:31.789Z,4.47
2023-07-24T22:06:00.836Z,4.35
2023-07-24T22:08:29.194Z,4.60
2023-07-24T22:10:59.511Z,4.57
2023-07-24T22:13:27.618Z,4.32
2023-07-24T22:15:55.648Z,4.30
2023-07-24T22:18:24.005Z,4.45
2023-07-24T22:20:51.987Z,4.60
2023-07-24T22:23:20.013Z,4.32
2023-07-24T22:25:47.929Z,4.53
2023-07-24T22:28:17.677Z,4.40
2023-07-24T22:30:45.685Z,4.25
2023-07-24T22:33:13.792Z,4.18
2023-07-24T22:35:42.259Z,3.97
2023-07-24T22:38:10.331Z,4.70
2023-07-24T22:40:38.443Z,4.45
2023-07-24T22:43:06.395Z,4.10
2023-07-24T22:45:36.075Z,4.60
2023-07-24T22:48:04.231Z,4.05
2023-07-24T22:50:32.292Z,4.40
2023-07-24T22:53:00.280Z,4.70
2023-07-24T22:55:28.297Z,3.95
2023-07-24T22:57:57.708Z,4.38
2023-07-24T23:00:26.106Z,4.15
2023-07-24T23:02:58.223Z,3.95
2023-07-24T23:05:26.270Z,4.20
2023-07-24T23:07:56.339Z,4.10
2023-07-24T23:10:24.620Z,4.22
2023-07-24T23:12:52.720Z,3.92
2023-07-24T23:15:20.805Z,4.32
2023-07-24T23:17:48.810Z,3.63
2023-07-24T23:20:18.554Z,4.03
2023-07-24T23:22:49.486Z,4.22
2023-07-24T23:25:19.537Z,4.20
2023-07-24T23:27:48.117Z,4.38
2023-07-24T23:30:17.326Z,4.40
2023-07-24T23:32:45.422Z,3.90
2023-07-24T23:35:13.574Z,4.38
2023-07-24T23:37:42.959Z,3.88
2023-07-24T23:40:11.749Z,4.47
2023-07-24T23:42:39.692Z,4.10
2023-07-24T23:45:08.884Z,4.13
2023-07-24T23:47:37.216Z,4.40
2023-07-24T23:50:05.690Z,4.05
2023-07-24T23:52:34.030Z,4.10
2023-07-24T23:55:03.477Z,4.20
2023-07-24T23:57:32.827Z,3.50
